Nearby METAR Reports

 

KPMP - Pompano Beach, Florida, USA
Distance from station: NNW 3mi, 5km
Updated: 06/05/2020 7:53am
Clear
Clear
 Wind from SE
Wind: SE 12 mph , 19 km/h
Temperature: 81°F , 27°C
Heat Index: 88°F , 31°C
Dew Point: 77°F , 25°C
Humidity: 89%
Barometer: 30.01 inHg , 1016.3 hPa
Clouds: Clear
Visibility: 8 miles , 13 km
2020/06/05 11:53 KPMP 051153Z 14010KT 8SM CLR 27/25 A3001 RMK AO2 SLP164 70016 T02670250 10267 20256 51011 $
KFXE - Ft Lauderd/Exec, Florida, USA
Distance from station: W 6mi, 9km
Updated: 06/05/2020 7:53am
Clear
Clear
 Wind from SE
Wind: SE 9 mph , 15 km/h
Temperature: 82°F , 28°C
Heat Index: 91°F , 33°C
Dew Point: 79°F , 26°C
Humidity: 89%
Barometer: 30.01 inHg , 1016.3 hPa
Clouds: Clear
Visibility: 10 miles , 16 km
2020/06/05 11:53 KFXE 051153Z AUTO 13008KT 10SM CLR 28/26 A3001 RMK AO2 RAE1058 SLP164 P0000 60005 70018 T02780256 10278 20267 51011 $
 
KFLL - Ft Lauderd/Holly, Florida, USA
Distance from station: SSW 11mi, 17km
Updated: 06/05/2020 7:53am
Mostly cloudy
Mostly cloudy
 Wind from SE
Wind: SE 10 mph , 17 km/h
Temperature: 82°F , 28°C
Heat Index: 91°F , 33°C
Dew Point: 79°F , 26°C
Humidity: 89%
Barometer: 30.00 inHg , 1015.9 hPa
Clouds: Mostly cloudy
Visibility: 10 miles , 16 km
Cloud details: Few Clouds 2000 ft
Partly cloudy 7500 ft
Mostly cloudy 15000 ft
Mostly cloudy 25000 ft
2020/06/05 11:53 KFLL 051153Z 13009KT 10SM FEW020 SCT075 BKN150 BKN250 28/26 A3000 RMK AO2 SLP160 70004 T02830256 10283 20272 51010
KBCT - Boca Raton, Florida, USA
Distance from station: N 12mi, 19km
Updated: 06/05/2020 7:53am
Partly cloudy
Partly cloudy
 Wind from SE
Wind: SE 7 mph , 11 km/h, Gust: 14 mph , 22 km/h
Temperature: 82°F , 28°C
Heat Index: 91°F , 33°C
Dew Point: 79°F , 26°C
Humidity: 89%
Barometer: 30.02 inHg , 1016.6 hPa
Clouds: Partly cloudy
Visibility: 10 miles , 16 km
Cloud details: Partly cloudy 3000 ft
2020/06/05 11:53 KBCT 051153Z 14006G12KT 10SM SCT030 28/26 A3002
 
KHWO - Hollywood, Florida, USA
Distance from station: SSW 17mi, 27km
Updated: 06/05/2020 7:53am
Clear
Clear
 Wind from ESE
Wind: ESE 7 mph , 11 km/h
Barometer: 30.02 inHg , 1016.6 hPa
Clouds: Clear
Visibility: 10 miles , 16 km
2020/06/05 11:53 KHWO 051153Z 12006KT 10SM CLR A3002 RMK AO2 SLP167 70020 51010
KOPF - Miami/Opa Locka, Florida, USA
Distance from station: SSW 24mi, 38km
Updated: 06/05/2020 7:53am
Clear
Clear
 Wind from ESE
Wind: ESE 7 mph , 11 km/h
Temperature: 82°F , 28°C
Heat Index: 91°F , 33°C
Dew Point: 79°F , 26°C
Humidity: 89%
Barometer: 30.01 inHg , 1016.3 hPa
Clouds: Clear
Visibility: 10 miles , 16 km
2020/06/05 11:53 KOPF 051153Z 12006KT 10SM CLR 28/26 A3001 RMK AO2 SLP164 70022 T02780256 10278 20261 53009
 
KMIA - Miami, Florida, USA
Distance from station: SSW 31mi, 50km
Updated: 06/05/2020 7:53am
Overcast
Overcast
 Wind from ESE
Wind: ESE 8 mph , 13 km/h
Temperature: 82°F , 28°C
Heat Index: 91°F , 33°C
Dew Point: 79°F , 26°C
Humidity: 89%
Barometer: 30.01 inHg , 1016.3 hPa
Clouds: Overcast
Visibility: 10 miles , 16 km
Cloud details: Few Clouds 1400 ft
Few Clouds 9000 ft
Mostly cloudy 19000 ft
Overcast 25000 ft
2020/06/05 11:53 KMIA 051153Z 11007KT 10SM FEW014 FEW090 BKN190 OVC250 28/26 A3001 RMK AO2 RAB06E15 SLP162 P0000 60000 70069 T02780256 10278 20267 53008
KPBI - West Palm Beach, Florida, USA
Distance from station: N 33mi, 52km
Updated: 06/05/2020 7:53am
Mostly cloudy
Mostly cloudy
 Wind from SE
Wind: SE 6 mph , 9 km/h
Temperature: 81°F , 27°C
Heat Index: 89°F , 32°C
Dew Point: 79°F , 26°C
Humidity: 94%
Barometer: 30.03 inHg , 1016.9 hPa
Clouds: Mostly cloudy
Visibility: 10 miles , 16 km
Cloud details: Partly cloudy 2600 ft
Partly cloudy 17000 ft
Mostly cloudy 25000 ft
2020/06/05 11:53 KPBI 051153Z 14005KT 10SM SCT026 SCT170 BKN250 27/26 A3003 RMK AO2 SLP168 70118 T02670256 10267 20239 53009 $
 
KTMB - Miami/Tamiami, Florida, USA
Distance from station: SSW 44mi, 71km
Updated: 06/05/2020 7:53am
Clear
Clear
 Wind from ESE
Wind: ESE 7 mph , 11 km/h
Temperature: 82°F , 28°C
Heat Index: 91°F , 33°C
Dew Point: 79°F , 26°C
Humidity: 89%
Barometer: 30.00 inHg , 1015.9 hPa
Clouds: Clear
Visibility: 10 miles , 16 km
2020/06/05 11:53 KTMB 051153Z 12006KT 10SM CLR 28/26 A3000 RMK AO2 SLP159 70005 T02830261 10283 20261 53007